Terminal Aerodrome Forecast
Issued by NWS

Home | Current Version | Previous Version | Text Only | Print | Product List | Glossary On
Versions: 1 2 3 4 5 6 7 8 9 10 11 12 13
000
FTUS45 KRIW 291700
TAFCPR
TAF
KCPR 291725Z 2918/3018 24006KT P6SM FEW040
     FM292100 21010G15KT P6SM SCT250
     FM301400 23010KT P6SM BKN250=

USA.gov is the U.S. government's official web portal to all federal, state and local government web resources and services.